createdAt,value
2022-10-22T00:01:11.601Z,7.55
2022-10-22T00:03:41.319Z,7.56
2022-10-22T00:06:09.437Z,7.59
2022-10-22T00:08:37.577Z,7.61
2022-10-22T00:11:23.806Z,7.62
2022-10-22T00:13:51.775Z,7.64
2022-10-22T00:16:20.085Z,7.65
2022-10-22T00:18:48.208Z,7.66
2022-10-22T00:21:16.163Z,7.68
2022-10-22T00:23:44.235Z,7.69
2022-10-22T00:26:12.991Z,7.71
2022-10-22T00:28:41.686Z,7.71
2022-10-22T00:31:10.055Z,7.73
2022-10-22T00:33:37.999Z,7.72
2022-10-22T00:36:06.372Z,7.73
2022-10-22T00:38:34.788Z,7.73
2022-10-22T00:41:02.804Z,7.73
2022-10-22T00:43:30.823Z,7.73
2022-10-22T00:45:58.877Z,7.73
2022-10-22T00:48:29.897Z,7.74
2022-10-22T00:51:06.453Z,7.74
2022-10-22T00:53:41.695Z,7.73
2022-10-22T00:56:10.782Z,7.74
2022-10-22T00:58:52.681Z,7.74
2022-10-22T01:01:25.315Z,7.73
2022-10-22T01:03:53.961Z,7.72
2022-10-22T01:06:26.272Z,7.72
2022-10-22T01:09:09.889Z,7.70
2022-10-22T01:11:52.865Z,7.68
2022-10-22T01:14:45.427Z,7.68
2022-10-22T01:17:28.347Z,7.66
2022-10-22T01:20:08.464Z,7.64
2022-10-22T01:22:43.238Z,7.62
2022-10-22T01:25:19.925Z,7.62
2022-10-22T01:28:23.997Z,7.60
2022-10-22T01:30:56.628Z,7.58
2022-10-22T01:33:26.121Z,7.57
2022-10-22T01:35:55.291Z,7.55
2022-10-22T01:38:25.274Z,7.54
2022-10-22T01:40:54.800Z,7.52
2022-10-22T01:43:22.973Z,7.51
2022-10-22T01:45:54.100Z,7.49
2022-10-22T01:48:40.352Z,7.46
2022-10-22T01:51:29.671Z,7.42
2022-10-22T01:54:08.798Z,7.38
2022-10-22T01:57:03.939Z,7.33
2022-10-22T01:59:45.373Z,7.31
2022-10-22T02:02:23.118Z,7.28
2022-10-22T02:05:03.339Z,7.25
2022-10-22T02:07:39.643Z,7.22
2022-10-22T02:10:09.573Z,7.20
2022-10-22T02:12:39.609Z,7.17
2022-10-22T02:15:09.208Z,7.16
2022-10-22T02:17:39.237Z,7.13
2022-10-22T02:20:17.006Z,7.10
2022-10-22T02:22:46.611Z,7.09
2022-10-22T02:25:15.237Z,7.07
2022-10-22T02:28:26.964Z,7.07
2022-10-22T02:31:00.431Z,7.05
2022-10-22T02:33:32.700Z,7.04
2022-10-22T02:36:02.680Z,7.02
2022-10-22T02:38:33.143Z,6.99
2022-10-22T02:41:01.849Z,6.96
2022-10-22T02:43:30.057Z,6.95
2022-10-22T02:45:58.186Z,6.93
2022-10-22T02:48:26.338Z,6.91
2022-10-22T02:50:54.974Z,6.89
2022-10-22T02:53:23.054Z,6.87
2022-10-22T02:55:51.165Z,6.85
2022-10-22T02:58:19.195Z,6.83
2022-10-22T03:00:48.494Z,6.82
2022-10-22T03:03:16.437Z,6.80
2022-10-22T03:05:44.361Z,6.79
2022-10-22T03:08:13.252Z,6.78
2022-10-22T03:10:41.326Z,6.75
2022-10-22T03:13:09.323Z,6.74
2022-10-22T03:15:37.348Z,6.72
2022-10-22T03:18:05.668Z,6.69
2022-10-22T03:20:33.735Z,6.67
2022-10-22T03:23:02.725Z,6.65
2022-10-22T03:25:34.526Z,6.62
2022-10-22T03:28:07.946Z,6.61
2022-10-22T03:30:36.870Z,6.59
2022-10-22T03:33:04.860Z,6.57
2022-10-22T03:35:37.064Z,6.56
2022-10-22T03:38:05.135Z,6.55
2022-10-22T03:40:33.084Z,6.54
2022-10-22T03:43:01.162Z,6.50
2022-10-22T03:45:29.138Z,6.48
2022-10-22T03:47:57.152Z,6.46
2022-10-22T03:50:25.265Z,6.45
2022-10-22T03:52:53.879Z,6.43
2022-10-22T03:55:21.801Z,6.40
2022-10-22T03:57:50.214Z,6.39
2022-10-22T04:00:18.440Z,6.38
2022-10-22T04:02:46.501Z,6.38
2022-10-22T04:07:47.381Z,6.37
2022-10-22T04:10:15.728Z,6.37
2022-10-22T04:12:43.674Z,6.37
2022-10-22T04:15:11.764Z,6.37
2022-10-22T04:17:40.381Z,6.37
2022-10-22T04:20:10.480Z,6.36
2022-10-22T04:22:38.488Z,6.36
2022-10-22T04:25:06.578Z,6.36
2022-10-22T04:27:35.255Z,6.36
2022-10-22T04:30:05.506Z,6.35
2022-10-22T04:32:33.504Z,6.33
2022-10-22T04:35:01.460Z,6.33
2022-10-22T04:37:29.473Z,6.32
2022-10-22T04:39:58.299Z,6.32
2022-10-22T04:42:26.486Z,6.31
2022-10-22T04:44:54.473Z,6.30
2022-10-22T04:47:22.479Z,6.29
2022-10-22T04:49:50.405Z,6.27
2022-10-22T04:52:18.455Z,6.26
2022-10-22T04:54:47.061Z,6.27
2022-10-22T04:57:15.111Z,6.27
2022-10-22T04:59:43.081Z,6.27
2022-10-22T05:02:11.027Z,6.27
2022-10-22T05:04:39.048Z,6.27
2022-10-22T05:07:07.160Z,6.28
2022-10-22T05:09:35.284Z,6.29
2022-10-22T05:12:03.291Z,6.30
2022-10-22T05:14:31.422Z,6.30
2022-10-22T05:16:59.591Z,6.31
2022-10-22T05:19:30.118Z,6.30
2022-10-22T05:22:00.966Z,6.29
2022-10-22T05:24:30.486Z,6.30
2022-10-22T05:27:00.227Z,6.29
2022-10-22T05:29:28.703Z,6.27
2022-10-22T05:31:57.176Z,6.26
2022-10-22T05:34:25.400Z,6.27
2022-10-22T05:36:53.375Z,6.26
2022-10-22T05:39:21.444Z,6.27
2022-10-22T05:41:49.458Z,6.28
2022-10-22T05:44:17.472Z,6.29
2022-10-22T05:46:45.796Z,6.30
2022-10-22T05:49:15.699Z,6.32
2022-10-22T05:51:43.924Z,6.32
2022-10-22T05:54:20.075Z,6.33
2022-10-22T05:56:48.272Z,6.33
2022-10-22T05:59:16.352Z,6.32
2022-10-22T06:01:44.686Z,6.34
2022-10-22T06:04:13.885Z,6.35
2022-10-22T06:06:51.260Z,6.36
2022-10-22T06:09:31.726Z,6.39
2022-10-22T06:11:59.991Z,6.41
2022-10-22T06:14:29.554Z,6.44
2022-10-22T06:17:00.321Z,6.49
2022-10-22T06:19:30.110Z,6.55
2022-10-22T06:21:58.274Z,6.62
2022-10-22T06:24:26.353Z,6.72
2022-10-22T06:26:54.358Z,6.84
2022-10-22T06:29:22.528Z,6.96
2022-10-22T06:31:51.795Z,7.09
2022-10-22T06:34:19.942Z,7.23
2022-10-22T06:36:48.029Z,7.34
2022-10-22T06:39:18.087Z,7.44
2022-10-22T06:41:47.113Z,7.52
2022-10-22T06:44:19.500Z,7.60
2022-10-22T06:46:52.322Z,7.68
2022-10-22T06:49:21.232Z,7.77
2022-10-22T06:51:53.682Z,7.84
2022-10-22T06:54:23.161Z,7.93
2022-10-22T06:56:51.176Z,7.98
2022-10-22T06:59:19.224Z,8.00
2022-10-22T07:01:47.274Z,8.05
2022-10-22T07:04:15.723Z,8.06
2022-10-22T07:06:43.718Z,8.07
2022-10-22T07:09:11.947Z,8.09
2022-10-22T07:11:45.633Z,8.10
2022-10-22T07:14:14.715Z,8.12
2022-10-22T07:16:43.322Z,8.15
2022-10-22T07:19:11.742Z,8.20
2022-10-22T07:21:40.122Z,8.25
2022-10-22T07:24:08.516Z,8.30
2022-10-22T07:26:37.051Z,8.35
2022-10-22T07:29:06.442Z,8.40
2022-10-22T07:31:34.533Z,8.47
2022-10-22T07:34:02.717Z,8.54
2022-10-22T07:36:30.694Z,8.61
2022-10-22T07:38:59.839Z,8.68
2022-10-22T07:41:29.849Z,8.74
2022-10-22T07:43:58.332Z,8.81
2022-10-22T07:46:27.542Z,8.86
2022-10-22T07:48:55.620Z,8.89
2022-10-22T07:51:23.989Z,8.92
2022-10-22T07:53:52.057Z,8.95
2022-10-22T07:56:20.960Z,8.98
2022-10-22T07:58:49.087Z,9.02
2022-10-22T08:01:17.249Z,9.06
2022-10-22T08:03:45.318Z,9.13
2022-10-22T08:06:15.065Z,9.20
2022-10-22T08:08:47.842Z,9.32
2022-10-22T08:11:16.136Z,9.43
2022-10-22T08:13:45.595Z,9.50
2022-10-22T08:16:15.041Z,9.59
2022-10-22T08:18:43.186Z,9.68
2022-10-22T08:21:12.627Z,9.76
2022-10-22T08:23:40.870Z,9.82
2022-10-22T08:26:09.256Z,9.88
2022-10-22T08:28:37.419Z,9.94
2022-10-22T08:31:07.961Z,10.02
2022-10-22T08:33:37.029Z,10.11
2022-10-22T08:36:06.031Z,10.19
2022-10-22T08:38:35.419Z,10.25
2022-10-22T08:41:18.596Z,10.29
2022-10-22T08:44:14.787Z,10.33
2022-10-22T08:46:55.202Z,10.36
2022-10-22T08:49:28.681Z,10.37
2022-10-22T08:52:00.345Z,10.39
2022-10-22T08:54:54.672Z,10.42
2022-10-22T08:57:51.388Z,10.43
2022-10-22T09:00:36.112Z,10.44
2022-10-22T09:03:41.631Z,10.47
2022-10-22T09:06:18.844Z,10.49
2022-10-22T09:08:47.944Z,10.53
2022-10-22T09:11:20.319Z,10.55
2022-10-22T09:13:49.518Z,10.57
2022-10-22T09:16:22.211Z,10.57
2022-10-22T09:19:18.204Z,10.55
2022-10-22T09:22:04.655Z,10.53
2022-10-22T09:24:39.662Z,10.51
2022-10-22T09:27:13.981Z,10.51
2022-10-22T09:29:43.520Z,10.54
2022-10-22T09:32:11.701Z,10.57
2022-10-22T09:34:39.950Z,10.59
2022-10-22T09:37:10.195Z,10.62
2022-10-22T09:39:41.664Z,10.63
2022-10-22T09:42:12.167Z,10.63
2022-10-22T09:44:43.689Z,10.64
2022-10-22T09:48:00.464Z,10.63
2022-10-22T09:50:41.315Z,10.64
2022-10-22T09:53:13.860Z,10.65
2022-10-22T09:55:43.600Z,10.65
2022-10-22T09:58:14.120Z,10.63
2022-10-22T10:00:45.705Z,10.61
2022-10-22T10:03:23.722Z,10.58
2022-10-22T10:05:55.089Z,10.54
2022-10-22T10:08:24.164Z,10.51
2022-10-22T10:11:08.508Z,10.51
2022-10-22T10:13:51.908Z,10.47
2022-10-22T10:16:31.039Z,10.45
2022-10-22T10:19:11.609Z,10.44
2022-10-22T10:22:05.486Z,10.42
2022-10-22T10:24:48.984Z,10.40
2022-10-22T10:27:25.161Z,10.38
2022-10-22T10:30:10.359Z,10.37
2022-10-22T10:32:41.458Z,10.37
2022-10-22T10:35:28.304Z,10.37
2022-10-22T10:37:59.815Z,10.35
2022-10-22T10:40:43.673Z,10.32
2022-10-22T10:43:38.859Z,10.30
2022-10-22T10:46:19.195Z,10.28
2022-10-22T10:48:57.285Z,10.25
2022-10-22T10:52:02.612Z,10.23
2022-10-22T10:54:55.569Z,10.22
2022-10-22T10:57:59.946Z,10.19
2022-10-22T11:00:36.133Z,10.14
2022-10-22T11:03:38.204Z,10.09
2022-10-22T11:06:21.595Z,10.04
2022-10-22T11:09:02.834Z,9.99
2022-10-22T11:11:40.224Z,9.94
2022-10-22T11:14:14.701Z,9.89
2022-10-22T11:17:11.943Z,9.87
2022-10-22T11:19:51.604Z,9.85
2022-10-22T11:22:29.648Z,9.84
2022-10-22T11:25:18.798Z,9.83
2022-10-22T11:28:06.548Z,9.80
2022-10-22T11:30:41.828Z,9.76
2022-10-22T11:33:18.498Z,9.75
2022-10-22T11:35:48.572Z,9.73
2022-10-22T11:38:22.565Z,9.70
2022-10-22T11:40:55.136Z,9.67
2022-10-22T11:43:52.006Z,9.64
2022-10-22T11:46:19.904Z,9.61
2022-10-22T11:49:06.417Z,9.59
2022-10-22T11:51:39.926Z,9.57
2022-10-22T11:54:26.916Z,9.56
2022-10-22T11:57:17.337Z,9.55
2022-10-22T11:59:54.102Z,9.53
2022-10-22T12:02:28.271Z,9.53
2022-10-22T12:05:19.334Z,9.52
2022-10-22T12:07:58.601Z,9.51
2022-10-22T12:10:29.807Z,9.52
2022-10-22T12:13:24.199Z,9.52
2022-10-22T12:15:57.487Z,9.54
2022-10-22T12:18:41.472Z,9.53
2022-10-22T12:21:14.069Z,9.53
2022-10-22T12:23:44.702Z,9.55
2022-10-22T12:26:27.343Z,9.55
2022-10-22T12:29:03.369Z,9.56
2022-10-22T12:31:35.983Z,9.55
2022-10-22T12:34:04.568Z,9.55
2022-10-22T12:36:37.065Z,9.54
2022-10-22T12:39:13.240Z,9.56
2022-10-22T12:41:41.990Z,9.59
2022-10-22T12:44:16.270Z,9.59
2022-10-22T12:46:47.438Z,9.63
2022-10-22T12:49:22.578Z,9.66
2022-10-22T12:51:50.645Z,9.72
2022-10-22T12:54:27.154Z,9.76
2022-10-22T12:56:56.467Z,9.81
2022-10-22T12:59:39.174Z,9.84
2022-10-22T13:02:27.409Z,9.88
2022-10-22T13:05:14.449Z,9.91
2022-10-22T13:07:48.999Z,9.95
2022-10-22T13:10:25.603Z,9.99
2022-10-22T13:12:59.219Z,10.00
2022-10-22T13:15:35.830Z,10.02
2022-10-22T13:18:23.137Z,10.02
2022-10-22T13:21:01.966Z,10.03
2022-10-22T13:23:33.912Z,10.04
2022-10-22T13:26:17.041Z,10.05
2022-10-22T13:28:54.742Z,10.04
2022-10-22T13:31:29.118Z,10.04
2022-10-22T13:34:03.683Z,10.02
2022-10-22T13:36:34.721Z,10.02
2022-10-22T13:39:04.035Z,10.01
2022-10-22T13:41:34.787Z,10.01
2022-10-22T13:44:03.015Z,10.00
2022-10-22T13:46:31.625Z,10.00
2022-10-22T13:49:00.668Z,9.99
2022-10-22T13:51:35.879Z,9.99
2022-10-22T13:54:09.553Z,9.98
2022-10-22T13:56:37.571Z,9.99
2022-10-22T13:59:05.534Z,10.00
2022-10-22T14:01:33.522Z,10.02
2022-10-22T14:04:04.628Z,10.02
2022-10-22T14:09:14.684Z,10.02
2022-10-22T14:11:43.558Z,10.04
2022-10-22T14:14:14.385Z,10.05
2022-10-22T14:16:42.862Z,10.07
2022-10-22T14:19:16.597Z,10.06
2022-10-22T14:21:44.797Z,10.06
2022-10-22T14:24:13.505Z,10.05
2022-10-22T14:26:42.041Z,10.02
2022-10-22T14:29:11.315Z,10.01
2022-10-22T14:31:42.754Z,10.01
2022-10-22T14:34:13.111Z,9.98
2022-10-22T14:36:43.813Z,9.97
2022-10-22T14:39:13.706Z,9.95
2022-10-22T14:41:42.722Z,9.94
2022-10-22T14:44:14.394Z,9.93
2022-10-22T14:46:44.901Z,9.92
2022-10-22T14:49:13.804Z,9.91
2022-10-22T14:51:42.193Z,9.89
2022-10-22T14:54:10.396Z,9.88
2022-10-22T14:56:38.556Z,9.87
2022-10-22T14:59:06.868Z,9.86
2022-10-22T15:01:35.001Z,9.85
2022-10-22T15:04:03.268Z,9.84
2022-10-22T15:06:31.504Z,9.83
2022-10-22T15:08:59.644Z,9.81
2022-10-22T15:11:28.514Z,9.80
2022-10-22T15:13:56.438Z,9.78
2022-10-22T15:16:24.610Z,9.76
2022-10-22T15:18:53.562Z,9.76
2022-10-22T15:21:22.479Z,9.75
2022-10-22T15:23:50.553Z,9.73
2022-10-22T15:26:19.081Z,9.72
2022-10-22T15:28:47.385Z,9.73
2022-10-22T15:31:15.843Z,9.72
2022-10-22T15:33:44.056Z,9.74
2022-10-22T15:36:16.567Z,9.73
2022-10-22T15:38:44.934Z,9.73
2022-10-22T15:41:13.707Z,9.72
2022-10-22T15:43:42.862Z,9.72
2022-10-22T15:46:17.271Z,9.73
2022-10-22T15:48:46.185Z,9.72
2022-10-22T15:51:18.844Z,9.72
2022-10-22T15:53:52.629Z,9.72
2022-10-22T15:56:21.521Z,9.72
2022-10-22T15:58:53.717Z,9.72
2022-10-22T16:01:21.950Z,9.71
2022-10-22T16:04:00.374Z,9.71
2022-10-22T16:06:33.368Z,9.68
2022-10-22T16:09:03.670Z,9.69
2022-10-22T16:11:32.364Z,9.69
2022-10-22T16:14:01.537Z,9.68
2022-10-22T16:16:32.883Z,9.68
2022-10-22T16:19:01.509Z,9.68
2022-10-22T16:21:30.319Z,9.66
2022-10-22T16:24:05.921Z,9.66
2022-10-22T16:26:35.644Z,9.65
2022-10-22T16:29:05.396Z,9.64
2022-10-22T16:31:33.447Z,9.64
2022-10-22T16:34:01.485Z,9.62
2022-10-22T16:36:29.519Z,9.61
2022-10-22T16:38:57.538Z,9.60
2022-10-22T16:41:26.073Z,9.59
2022-10-22T16:43:55.480Z,9.58
2022-10-22T16:46:23.566Z,9.58
2022-10-22T16:48:52.987Z,9.58
2022-10-22T16:51:24.055Z,9.56
2022-10-22T16:53:52.804Z,9.56
2022-10-22T16:56:21.491Z,9.56
2022-10-22T16:58:53.811Z,9.55
2022-10-22T17:01:26.032Z,9.53
2022-10-22T17:03:57.043Z,9.52
2022-10-22T17:06:25.566Z,9.51
2022-10-22T17:08:54.262Z,9.50
2022-10-22T17:11:24.732Z,9.50
2022-10-22T17:13:54.488Z,9.49
2022-10-22T17:16:24.398Z,9.46
2022-10-22T17:18:54.869Z,9.46
2022-10-22T17:21:24.077Z,9.46
2022-10-22T17:23:58.769Z,9.45
2022-10-22T17:26:27.075Z,9.44
2022-10-22T17:28:55.454Z,9.43
2022-10-22T17:31:23.407Z,9.43
2022-10-22T17:33:53.861Z,9.42
2022-10-22T17:36:23.474Z,9.42
2022-10-22T17:38:57.197Z,9.43
2022-10-22T17:41:30.957Z,9.44
2022-10-22T17:44:01.770Z,9.44
2022-10-22T17:46:31.437Z,9.45
2022-10-22T17:49:05.446Z,9.45
2022-10-22T17:51:33.739Z,9.46
2022-10-22T17:54:03.567Z,9.46
2022-10-22T17:56:34.301Z,9.47
2022-10-22T17:59:02.501Z,9.46
2022-10-22T18:01:33.280Z,9.46
2022-10-22T18:04:04.340Z,9.46
2022-10-22T18:06:32.646Z,9.45
2022-10-22T18:09:04.640Z,9.44
2022-10-22T18:11:34.445Z,9.42
2022-10-22T18:14:02.806Z,9.41
2022-10-22T18:16:30.745Z,9.39
2022-10-22T18:18:58.975Z,9.38
2022-10-22T18:21:31.472Z,9.35
2022-10-22T18:23:59.754Z,9.32
2022-10-22T18:26:27.789Z,9.31
2022-10-22T18:28:57.237Z,9.29
2022-10-22T18:31:27.144Z,9.28
2022-10-22T18:33:57.250Z,9.27
2022-10-22T18:36:26.614Z,9.27
2022-10-22T18:38:56.253Z,9.27
2022-10-22T18:41:24.884Z,9.28
2022-10-22T18:43:56.472Z,9.27
2022-10-22T18:46:25.779Z,9.27
2022-10-22T18:48:58.316Z,9.28
2022-10-22T18:51:30.655Z,9.28
2022-10-22T18:54:11.339Z,9.28
2022-10-22T18:56:47.552Z,9.29
2022-10-22T18:59:19.302Z,9.30
2022-10-22T19:01:47.655Z,9.30
2022-10-22T19:04:15.717Z,9.29
2022-10-22T19:06:45.754Z,9.28
2022-10-22T19:09:15.826Z,9.26
2022-10-22T19:11:45.196Z,9.25
2022-10-22T19:14:17.312Z,9.24
2022-10-22T19:16:45.710Z,9.23
2022-10-22T19:19:17.898Z,9.22
2022-10-22T19:21:46.681Z,9.22
2022-10-22T19:24:16.840Z,9.21
2022-10-22T19:26:46.296Z,9.22
2022-10-22T19:29:16.776Z,9.21
2022-10-22T19:31:45.114Z,9.20
2022-10-22T19:34:14.177Z,9.19
2022-10-22T19:36:42.281Z,9.19
2022-10-22T19:39:10.620Z,9.19
2022-10-22T19:41:39.075Z,9.19
2022-10-22T19:44:07.359Z,9.19
2022-10-22T19:46:35.416Z,9.19
2022-10-22T19:49:04.957Z,9.20
2022-10-22T19:51:34.546Z,9.20
2022-10-22T19:54:06.298Z,9.20
2022-10-22T19:56:36.091Z,9.18
2022-10-22T19:59:05.878Z,9.19
2022-10-22T20:01:34.105Z,9.19
2022-10-22T20:04:09.625Z,9.20
2022-10-22T20:06:37.668Z,9.22
2022-10-22T20:09:06.650Z,9.23
2022-10-22T20:11:34.696Z,9.24
2022-10-22T20:14:02.932Z,9.25
2022-10-22T20:16:31.793Z,9.27
2022-10-22T20:19:02.517Z,9.29
2022-10-22T20:21:30.946Z,9.30
2022-10-22T20:23:59.431Z,9.31
2022-10-22T20:26:28.499Z,9.33
2022-10-22T20:28:58.486Z,9.34
2022-10-22T20:31:28.774Z,9.36
2022-10-22T20:33:59.007Z,9.38
2022-10-22T20:36:28.976Z,9.40
2022-10-22T20:39:02.915Z,9.42
2022-10-22T20:41:37.833Z,9.43
2022-10-22T20:44:06.954Z,9.44
2022-10-22T20:46:37.352Z,9.45
2022-10-22T20:49:09.135Z,9.48
2022-10-22T20:51:38.200Z,9.49
2022-10-22T20:54:08.096Z,9.49
2022-10-22T20:56:39.785Z,9.51
2022-10-22T20:59:11.116Z,9.53
2022-10-22T21:01:48.104Z,9.54
2022-10-22T21:04:18.016Z,9.54
2022-10-22T21:06:46.477Z,9.55
2022-10-22T21:09:15.198Z,9.55
2022-10-22T21:11:43.842Z,9.55
2022-10-22T21:14:14.042Z,9.56
2022-10-22T21:16:44.115Z,9.57
2022-10-22T21:19:12.347Z,9.57
2022-10-22T21:21:40.843Z,9.56
2022-10-22T21:24:09.448Z,9.57
2022-10-22T21:26:38.484Z,9.57
2022-10-22T21:29:07.395Z,9.58
2022-10-22T21:31:36.078Z,9.59
2022-10-22T21:34:04.268Z,9.60
2022-10-22T21:36:34.914Z,9.61
2022-10-22T21:39:03.201Z,9.62
2022-10-22T21:41:31.349Z,9.64
2022-10-22T21:43:59.769Z,9.66
2022-10-22T21:46:28.972Z,9.68
2022-10-22T21:49:01.241Z,9.70
2022-10-22T21:51:32.387Z,9.73
2022-10-22T21:54:00.781Z,9.76
2022-10-22T21:56:32.827Z,9.78
2022-10-22T21:59:02.269Z,9.80
2022-10-22T22:01:30.715Z,9.81
2022-10-22T22:03:59.223Z,9.82
2022-10-22T22:06:30.717Z,9.84
2022-10-22T22:09:00.257Z,9.85
2022-10-22T22:11:28.670Z,9.85
2022-10-22T22:13:58.033Z,9.85
2022-10-22T22:16:29.632Z,9.86
2022-10-22T22:21:39.506Z,9.85
2022-10-22T22:24:11.027Z,9.85
2022-10-22T22:26:40.860Z,9.87
2022-10-22T22:29:10.589Z,9.87
2022-10-22T22:31:40.146Z,9.87
2022-10-22T22:34:12.855Z,9.87
2022-10-22T22:36:43.856Z,9.86
2022-10-22T22:39:14.481Z,9.86
2022-10-22T22:41:43.382Z,9.84
2022-10-22T22:44:12.289Z,9.85
2022-10-22T22:46:40.565Z,9.84
2022-10-22T22:49:09.100Z,9.84
2022-10-22T22:51:37.053Z,9.82
2022-10-22T22:54:05.086Z,9.82
2022-10-22T22:56:34.746Z,9.80
2022-10-22T22:59:04.945Z,9.78
2022-10-22T23:01:35.815Z,9.78
2022-10-22T23:04:12.174Z,9.77
2022-10-22T23:06:40.582Z,9.76
2022-10-22T23:09:11.173Z,9.75
2022-10-22T23:11:40.436Z,9.76
2022-10-22T23:14:11.748Z,9.76
2022-10-22T23:16:42.724Z,9.75
2022-10-22T23:19:10.731Z,9.75
2022-10-22T23:21:41.092Z,9.76
2022-10-22T23:24:14.015Z,9.78
2022-10-22T23:26:47.998Z,9.80
2022-10-22T23:29:19.069Z,9.80
2022-10-22T23:31:48.409Z,9.81
2022-10-22T23:34:25.328Z,9.82
2022-10-22T23:36:55.796Z,9.83
2022-10-22T23:39:26.485Z,9.84
2022-10-22T23:41:55.497Z,9.85
2022-10-22T23:44:24.305Z,9.86
2022-10-22T23:46:52.345Z,9.87
2022-10-22T23:49:20.218Z,9.88
2022-10-22T23:51:48.182Z,9.89
2022-10-22T23:54:18.649Z,9.90
2022-10-22T23:56:47.786Z,9.90
2022-10-22T23:59:16.248Z,9.90
